Time;durP1;ratioP1;P1;durP2;ratioP2;P2;SDS_P1;SDS_P2;PMS_P1;PMS_P2;Temp;Humidity;BMP_temperature;BMP_pressure;BME280_temperature;BME280_humidity;BME280_pressure;Samples;Min_cycle;Max_cycle;Signal;HPM_P1;HPM_P2
2023/01/13 00:02:13;;;;;;;6.70;4.23;;;;;;;;;;4926968;29;20214;-92
2023/01/13 00:04:39;;;;;;;8.67;3.10;;;;;;;;;;4940467;29;20209;-91
2023/01/13 00:07:05;;;;;;;7.57;4.53;;;;;;;;;;4933889;29;20180;-91
2023/01/13 00:09:33;;;;;;;9.57;4.10;;;;;;;;;;4922092;29;20326;-91
2023/01/13 00:11:59;;;;;;;7.40;3.07;;;;;;;;;;4921277;29;20209;-92
2023/01/13 00:14:28;;;;;;;11.30;4.70;;;;;;;;;;4919647;29;20646;-92
2023/01/13 00:16:56;;;;;;;6.40;3.93;;;;;;;;;;4920595;29;20189;-92
2023/01/13 00:19:25;;;;;;;5.47;3.10;;;;;;;;;;4919335;29;20177;-92
2023/01/13 00:21:51;;;;;;;7.83;5.60;;;;;;;;;;4924481;29;20188;-92
2023/01/13 00:24:17;;;;;;;6.77;3.57;;;;;;;;;;4926558;29;20181;-91
2023/01/13 00:26:54;;;;;;;10.30;3.63;;;2.50;99.90;;;;;;4924299;29;20655;-92
2023/01/13 00:29:21;;;;;;;11.37;4.60;;;;;;;;;;4909135;29;20186;-91
2023/01/13 00:31:58;;;;;;;8.13;5.03;;;2.50;99.90;;;;;;4923122;29;20191;-92
2023/01/13 00:34:24;;;;;;;7.93;4.20;;;;;;;;;;4909461;29;20192;-92
2023/01/13 00:36:50;;;;;;;9.30;3.73;;;;;;;;;;4910713;29;20266;-92
2023/01/13 00:39:16;;;;;;;5.50;4.00;;;;;;;;;;4911822;29;20271;-92
2023/01/13 00:44:45;;;;;;;6.73;4.87;;;;;;;;;;4906569;29;20180;-91
2023/01/13 00:47:11;;;;;;;7.37;4.13;;;;;;;;;;4888694;29;20215;-91
2023/01/13 00:49:42;;;;;;;5.67;4.60;;;2.50;99.90;;;;;;4887069;29;20195;-91
2023/01/13 00:52:08;;;;;;;4.17;3.40;;;;;;;;;;4889375;29;20637;-91
2023/01/13 00:54:34;;;;;;;4.40;2.67;;;;;;;;;;4907145;29;20251;-91
2023/01/13 00:57:08;;;;;;;8.17;3.63;;;;;;;;;;4938265;29;20224;-90
2023/01/13 00:59:36;;;;;;;6.80;4.40;;;2.50;99.90;;;;;;4940309;29;20632;-90
2023/01/13 01:02:02;;;;;;;4.27;3.57;;;;;;;;;;4922487;29;20656;-91
2023/01/13 01:04:32;;;;;;;8.57;4.00;;;2.40;99.90;;;;;;4937793;29;20195;-91
2023/01/13 01:06:58;;;;;;;2.90;2.33;;;;;;;;;;4940695;29;20307;-92
2023/01/13 01:09:31;;;;;;;10.03;4.37;;;;;;;;;;4940625;29;20183;-92
2023/01/13 01:11:58;;;;;;;5.03;3.57;;;2.40;99.90;;;;;;4939674;29;20207;-92
2023/01/13 01:14:27;;;;;;;8.13;3.73;;;;;;;;;;4940856;29;20175;-91
2023/01/13 01:16:53;;;;;;;7.67;4.20;;;;;;;;;;5033984;23;20246;-91
2023/01/13 01:19:19;;;;;;;3.93;3.13;;;;;;;;;;4963963;28;20210;-91
2023/01/13 01:21:46;;;;;;;7.40;4.07;;;;;;;;;;4964438;28;20186;-91
2023/01/13 01:24:16;;;;;;;8.27;4.70;;;2.30;99.90;;;;;;4965684;28;20189;-91
2023/01/13 01:26:42;;;;;;;12.13;6.47;;;;;;;;;;4946325;28;20559;-91
2023/01/13 01:29:14;;;;;;;7.07;2.93;;;2.30;99.90;;;;;;4945725;28;20546;-91
2023/01/13 01:31:40;;;;;;;12.70;4.90;;;;;;;;;;4979529;28;20170;-91
2023/01/13 01:34:06;;;;;;;8.83;3.80;;;;;;;;;;4978859;28;20174;-90
2023/01/13 01:36:34;;;;;;;13.73;5.30;;;;;;;;;;4978985;28;20181;-91
2023/01/13 01:39:00;;;;;;;9.27;4.10;;;;;;;;;;4976991;28;20181;-90
2023/01/13 01:41:29;;;;;;;8.50;3.30;;;2.30;99.90;;;;;;4976875;28;20264;-91
2023/01/13 01:44:01;;;;;;;9.63;4.13;;;2.30;99.90;;;;;;4960342;28;20194;-91
2023/01/13 01:46:37;;;;;;;7.63;4.03;;;2.30;99.90;;;;;;4960921;28;20624;-90
2023/01/13 01:49:21;;;;;;;16.97;4.53;;;2.30;99.90;;;;;;4959428;28;20233;-91
2023/01/13 01:52:07;;;;;;;10.03;3.53;;;2.30;99.90;;;;;;4958897;28;20182;-90
2023/01/13 01:54:33;;;;;;;6.30;3.47;;;;;;;;;;4976113;28;20159;-91
2023/01/13 01:56:59;;;;;;;4.47;3.47;;;2.30;99.90;;;;;;4976928;28;20189;-92
2023/01/13 01:59:28;;;;;;;4.80;3.47;;;2.30;99.90;;;;;;4960651;28;20171;-91
2023/01/13 02:01:55;;;;;;;4.50;3.33;;;2.30;99.90;;;;;;4960058;28;20198;-91
2023/01/13 02:04:26;;;;;;;6.63;4.60;;;2.40;99.90;;;;;;4965408;28;20175;-90
2023/01/13 02:06:53;;;;;;;2.90;2.70;;;;;;;;;;4989801;28;20166;-91
2023/01/13 02:09:19;;;;;;;4.97;3.50;;;;;;;;;;4973391;28;20261;-92
2023/01/13 02:14:30;;;;;;;2.50;2.30;;;;;;;;;;4979019;28;20177;-91
2023/01/13 02:17:09;;;;;;;8.23;3.87;;;4.40;99.90;;;;;;4978223;28;20292;-90
2023/01/13 02:19:57;;;;;;;2.20;2.07;;;2.40;99.90;;;;;;4959868;28;20179;-91
2023/01/13 02:22:31;;;;;;;13.87;6.17;;;2.40;99.90;;;;;;4957994;28;20188;-92
2023/01/13 02:25:23;;;;;;;4.63;3.80;;;2.40;99.90;;;;;;4958166;28;20256;-91
2023/01/13 02:28:09;;;;;;;5.63;3.13;;;2.40;99.90;;;;;;4938793;28;20224;-90
2023/01/13 02:33:51;;;;;;;4.40;4.00;;;2.70;99.90;;;;;;4975056;28;20229;-91
2023/01/13 02:36:32;;;;;;;10.33;3.77;;;2.40;99.90;;;;;;4975345;28;20255;-90
2023/01/13 02:39:06;;;;;;;9.57;4.23;;;2.30;99.90;;;;;;4975339;28;20172;-91
2023/01/13 02:44:23;;;;;;;6.03;4.43;;;2.30;99.90;;;;;;4974686;28;20165;-90
2023/01/13 02:46:55;;;;;;;15.40;3.47;;;2.30;99.90;;;;;;4975370;28;20170;-90
2023/01/13 02:49:29;;;;;;;5.57;4.00;;;2.40;99.90;;;;;;4975383;28;20173;-90
2023/01/13 02:52:02;;;;;;;5.80;2.93;;;2.40;99.90;;;;;;4957750;28;20596;-91
2023/01/13 02:54:30;;;;;;;3.83;3.20;;;2.40;99.90;;;;;;4958083;28;20178;-91
2023/01/13 02:56:58;;;;;;;4.73;3.20;;;2.40;99.90;;;;;;4975296;28;20179;-91
2023/01/13 02:59:26;;;;;;;8.17;3.70;;;2.40;99.90;;;;;;4957650;28;20218;-92
2023/01/13 03:01:54;;;;;;;7.60;3.40;;;2.40;99.90;;;;;;4975142;28;20556;-92
2023/01/13 03:04:48;;;;;;;12.30;4.63;;;2.40;99.90;;;;;;4957723;28;20186;-91
2023/01/13 03:07:44;;;;;;;9.77;4.87;;;2.40;99.90;;;;;;4957530;28;20193;-91
2023/01/13 03:10:32;;;;;;;13.97;4.33;;;2.30;99.90;;;;;;4975220;28;20163;-90
2023/01/13 03:13:23;;;;;;;6.63;3.60;;;2.40;99.90;;;;;;4958042;28;20218;-91
2023/01/13 03:16:21;;;;;;;4.90;3.90;;;2.30;99.90;;;;;;4958035;28;20243;-91
2023/01/13 03:18:47;;;;;;;4.23;2.70;;;;;;;;;;4921122;28;20190;-91
2023/01/13 03:21:39;;;;;;;4.03;3.50;;;2.40;99.90;;;;;;4957517;28;20192;-92
2023/01/13 03:24:18;;;;;;;7.37;3.63;;;2.40;99.90;;;;;;4960818;28;20202;-91
2023/01/13 03:26:44;;;;;;;4.77;3.50;;;;;;;;;;4957850;28;20185;-91
2023/01/13 03:29:10;;;;;;;7.37;4.63;;;;;;;;;;4977496;28;20186;-91
2023/01/13 03:31:43;;;;;;;4.10;3.23;;;2.40;99.90;;;;;;4978031;28;20577;-90
2023/01/13 03:34:16;;;;;;;4.17;2.87;;;2.50;99.90;;;;;;4977179;28;20245;-90
2023/01/13 03:36:45;;;;;;;4.83;2.97;;;2.50;99.90;;;;;;4961516;28;20285;-91
2023/01/13 03:39:15;;;;;;;5.33;2.97;;;2.50;99.90;;;;;;4961033;28;20189;-90
2023/01/13 03:41:56;;;;;;;6.47;3.83;;;2.50;99.90;;;;;;4978107;28;20597;-91
2023/01/13 03:44:34;;;;;;;6.50;4.63;;;2.60;99.90;;;;;;4960757;28;20186;-91
2023/01/13 03:47:14;;;;;;;4.47;3.40;;;2.50;99.90;;;;;;4960956;28;20205;-91
2023/01/13 03:50:04;;;;;;;4.40;3.07;;;2.70;99.90;;;;;;4987722;28;20169;-91
2023/01/13 03:52:43;;;;;;;4.47;2.17;;;2.70;99.90;;;;;;4978798;28;20214;-92
2023/01/13 03:55:14;;;;;;;5.03;3.97;;;2.70;99.90;;;;;;4964965;28;20186;-91
2023/01/13 03:57:49;;;;;;;3.30;2.50;;;2.80;99.90;;;;;;4960820;28;20612;-91
2023/01/13 04:00:16;;;;;;;6.13;4.43;;;;;;;;;;4978180;28;20174;-90
2023/01/13 04:02:49;;;;;;;5.70;4.07;;;2.90;99.90;;;;;;4960079;28;20233;-90
2023/01/13 04:05:16;;;;;;;11.57;3.40;;;2.90;99.90;;;;;;4978413;28;20171;-91
2023/01/13 04:07:42;;;;;;;8.57;2.80;;;;;;;;;;4977360;28;20537;-91
2023/01/13 04:10:10;;;;;;;6.43;2.97;;;3.00;99.90;;;;;;4960823;28;20183;-90
2023/01/13 04:13:01;;;;;;;3.27;2.40;;;3.10;99.90;;;;;;4977430;28;20202;-90
2023/01/13 04:15:37;;;;;;;2.03;1.50;;;3.20;99.90;;;;;;4956945;29;20241;-90
2023/01/13 04:18:16;;;;;;;4.43;3.67;;;3.20;99.90;;;;;;4941016;29;20209;-88
2023/01/13 04:20:44;;;;;;;2.03;1.67;;;3.30;99.90;;;;;;4958438;29;20187;-89
2023/01/13 04:23:12;;;;;;;2.73;2.47;;;3.30;99.90;;;;;;4958330;29;20186;-88
2023/01/13 04:25:39;;;;;;;4.87;2.67;;;3.30;99.90;;;;;;4942140;29;20186;-89
2023/01/13 04:28:05;;;;;;;2.23;2.03;;;;;;;;;;4941138;29;20333;-88
2023/01/13 04:30:31;;;;;;;4.87;2.73;;;;;;;;;;4941176;29;20183;-88
2023/01/13 04:33:00;;;;;;;2.70;2.50;;;;;;;;;;4940285;29;20214;-89
2023/01/13 04:35:26;;;;;;;5.23;3.97;;;;;;;;;;4954036;28;20211;-89
2023/01/13 04:37:52;;;;;;;6.93;3.33;;;;;;;;;;4938173;29;20195;-90
2023/01/13 04:40:21;;;;;;;8.87;5.27;;;;;;;;;;4927511;29;20191;-90
2023/01/13 04:42:47;;;;;;;3.40;2.67;;;;;;;;;;4948060;29;20653;-93
2023/01/13 04:45:13;;;;;;;3.37;2.00;;;;;;;;;;4936957;29;20244;-92
2023/01/13 04:47:42;;;;;;;6.33;3.30;;;;;;;;;;4928483;29;20183;-91
2023/01/13 04:50:09;;;;;;;3.47;2.50;;;3.70;99.90;;;;;;4953963;28;20210;-91
2023/01/13 04:52:35;;;;;;;2.83;1.67;;;;;;;;;;4926959;29;20721;-90
2023/01/13 04:55:04;;;;;;;3.80;2.57;;;3.70;99.90;;;;;;4947317;28;20194;-91
2023/01/13 04:57:32;;;;;;;7.70;3.80;;;;;;;;;;4949975;28;20191;-90
2023/01/13 04:59:58;;;;;;;2.83;2.10;;;;;;;;;;4948443;29;20183;-89
2023/01/13 05:02:24;;;;;;;4.17;2.67;;;;;;;;;;4940770;29;20242;-89
2023/01/13 05:04:52;;;;;;;1.67;1.57;;;3.90;99.90;;;;;;4940480;29;20187;-89
2023/01/13 05:07:18;;;;;;;7.57;3.47;;;;;;;;;;4940238;29;20184;-90
2023/01/13 05:09:44;;;;;;;3.23;2.10;;;;;;;;;;4930724;29;20241;-90
2023/01/13 05:17:42;;;;;;;4.07;2.57;;;;;;;;;;4943020;29;20262;-90
2023/01/13 05:20:20;;;;;;;3.00;2.77;;;3.90;99.90;;;;;;4941640;29;20187;-93
2023/01/13 05:35:39;;;;;;;7.50;3.90;;;4.00;99.90;;;;;;4972564;29;20202;-90
2023/01/13 05:38:05;;;;;;;4.10;2.53;;;;;;;;;;4972030;29;20215;-88
2023/01/13 05:43:24;;;;;;;8.30;3.33;;;3.60;99.90;;;;;;4957428;29;20270;-89
2023/01/13 05:46:06;;;;;;;3.70;2.83;;;3.70;99.90;;;;;;4939681;29;20194;-88
2023/01/13 05:48:37;;;;;;;4.30;2.23;;;3.90;99.90;;;;;;4934677;29;20183;-88
2023/01/13 05:51:05;;;;;;;6.13;2.90;;;3.90;99.90;;;;;;4938596;29;20187;-87
2023/01/13 05:53:31;;;;;;;2.37;2.17;;;3.90;99.90;;;;;;4923661;29;20210;-88
2023/01/13 05:56:00;;;;;;;6.07;2.47;;;;;;;;;;4935384;29;20186;-88
2023/01/13 05:58:30;;;;;;;4.00;2.90;;;3.90;99.90;;;;;;4955544;29;20249;-87
2023/01/13 06:01:08;;;;;;;3.77;3.03;;;3.90;99.90;;;;;;4940219;29;20271;-88
2023/01/13 06:03:38;;;;;;;5.70;3.23;;;4.00;99.90;;;;;;4938454;29;20187;-89
2023/01/13 06:06:07;;;;;;;4.77;2.03;;;4.00;99.90;;;;;;4953519;29;20186;-89
2023/01/13 06:08:33;;;;;;;3.83;2.30;;;;;;;;;;4938335;29;20230;-90
2023/01/13 06:11:04;;;;;;;6.80;3.13;;;4.00;99.90;;;;;;4938248;29;20199;-89
2023/01/13 06:13:36;;;;;;;6.90;3.43;;;4.00;99.90;;;;;;4939721;29;20215;-91
2023/01/13 06:16:06;;;;;;;11.90;3.40;;;4.00;99.90;;;;;;4964282;28;20230;-91
2023/01/13 06:18:35;;;;;;;7.27;4.03;;;;;;;;;;4959884;28;20190;-90
2023/01/13 06:21:03;;;;;;;5.77;2.67;;;;;;;;;;4958643;28;20178;-90
2023/01/13 06:23:33;;;;;;;7.43;2.27;;;;;;;;;;4959311;28;20639;-90
2023/01/13 06:26:09;;;;;;;2.30;2.10;;;4.00;99.90;;;;;;4958424;28;20217;-91
2023/01/13 06:28:35;;;;;;;4.30;2.97;;;;;;;;;;4958205;28;20636;-90
2023/01/13 06:31:11;;;;;;;3.03;2.30;;;4.10;99.90;;;;;;4958589;28;20635;-91
2023/01/13 06:33:42;;;;;;;4.17;2.40;;;4.10;99.90;;;;;;4976318;28;20746;-90
2023/01/13 06:36:36;;;;;;;3.13;2.03;;;4.10;99.90;;;;;;4975806;28;20202;-91
2023/01/13 06:39:06;;;;;;;3.57;2.67;;;4.10;99.90;;;;;;4973069;28;20246;-90
2023/01/13 06:44:21;;;;;;;6.57;2.73;;;4.20;99.90;;;;;;4986981;28;20230;-89
2023/01/13 06:46:48;;;;;;;5.40;3.23;;;;;;;;;;4967003;28;20246;-89
2023/01/13 06:49:14;;;;;;;4.37;2.30;;;;;;;;;;4969948;28;20182;-89
2023/01/13 06:51:40;;;;;;;4.13;3.77;;;;;;;;;;4970915;28;20210;-90
2023/01/13 06:54:08;;;;;;;4.40;2.77;;;;;;;;;;4954873;28;20222;-89
2023/01/13 06:56:34;;;;;;;2.40;2.20;;;;;;;;;;4973046;28;20643;-90
2023/01/13 06:59:08;;;;;;;2.77;2.00;;;4.30;99.90;;;;;;4972812;28;20560;-90
2023/01/13 07:01:36;;;;;;;3.00;2.10;;;;;;;;;;4952941;28;20189;-91
2023/01/13 07:04:02;;;;;;;5.70;2.37;;;;;;;;;;4962931;28;20197;-90
2023/01/13 07:06:28;;;;;;;4.63;2.37;;;;;;;;;;4964464;28;20194;-90
2023/01/13 07:08:58;;;;;;;4.47;3.20;;;4.40;99.90;;;;;;4963225;28;20548;-89
2023/01/13 07:11:27;;;;;;;2.23;2.00;;;;;;;;;;4927252;28;20644;-90
2023/01/13 07:16:43;;;;;;;2.87;2.60;;;4.50;99.90;;;;;;4979904;28;20241;-89
2023/01/13 07:19:12;;;;;;;2.33;2.13;;;4.50;99.90;;;;;;4946572;28;20273;-90
2023/01/13 07:21:40;;;;;;;2.53;2.33;;;4.60;99.90;;;;;;4962913;28;20265;-92
2023/01/13 07:24:06;;;;;;;4.80;2.90;;;;;;;;;;4965101;28;20190;-91
2023/01/13 07:26:59;;;;;;;1.93;1.57;;;4.60;99.90;;;;;;4964940;28;20262;-90
2023/01/13 07:29:25;;;;;;;2.53;2.33;;;;;;;;;;4963867;28;20221;-91
2023/01/13 07:31:51;;;;;;;3.17;1.70;;;;;;;;;;4963380;28;20175;-88
2023/01/13 07:34:19;;;;;;;2.43;2.23;;;4.70;99.90;;;;;;4959716;28;20234;-91
2023/01/13 07:36:48;;;;;;;10.13;3.33;;;;;;;;;;4961323;28;20206;-92
2023/01/13 07:39:16;;;;;;;7.57;4.83;;;4.80;99.90;;;;;;4984885;28;20238;-92
2023/01/13 07:45:11;;;;;;;3.93;2.43;;;4.80;99.90;;;;;;4980630;28;20203;-91
2023/01/13 07:47:47;;;;;;;2.47;1.77;;;4.90;99.90;;;;;;4961613;28;20234;-93
2023/01/13 07:50:13;;;;;;;3.80;2.10;;;;;;;;;;4962629;28;20182;-91
2023/01/13 07:52:43;;;;;;;2.20;1.87;;;5.00;99.90;;;;;;4962202;28;20260;-92
2023/01/13 07:55:09;;;;;;;5.33;1.43;;;;;;;;;;4962580;28;20246;-92
2023/01/13 07:57:56;;;;;;;1.63;1.53;;;5.10;99.90;;;;;;4962732;28;20282;-93
2023/01/13 08:00:22;;;;;;;2.73;1.80;;;;;;;;;;4962725;28;20265;-92
2023/01/13 08:02:48;;;;;;;3.93;2.33;;;;;;;;;;4962780;28;20210;-93
2023/01/13 08:05:17;;;;;;;1.80;1.70;;;;;;;;;;4962478;28;20195;-95
2023/01/13 08:07:45;;;;;;;2.93;2.17;;;5.20;99.90;;;;;;4962552;28;20187;-95
2023/01/13 08:10:13;;;;;;;2.27;2.10;;;;;;;;;;4962658;28;20177;-92
2023/01/13 08:15:55;;;;;;;3.30;2.30;;;5.30;99.90;;;;;;4984611;28;20241;-90
2023/01/13 08:18:23;;;;;;;4.00;2.23;;;5.40;99.90;;;;;;4986131;28;20179;-92
2023/01/13 08:20:55;;;;;;;1.97;1.87;;;5.40;99.90;;;;;;4967884;28;20186;-91
2023/01/13 08:23:24;;;;;;;3.83;2.80;;;5.40;99.90;;;;;;4967418;28;20702;-90
2023/01/13 08:25:54;;;;;;;3.47;2.83;;;5.50;99.90;;;;;;4966532;28;20654;-94
2023/01/13 08:28:22;;;;;;;3.67;1.97;;;;;;;;;;4962644;28;20655;-91
2023/01/13 08:30:51;;;;;;;4.60;2.67;;;;;;;;;;4978551;28;20182;-92
2023/01/13 08:33:27;;;;;;;4.73;2.77;;;5.50;99.90;;;;;;4961563;28;20214;-94
2023/01/13 08:35:56;;;;;;;3.70;3.00;;;;;;;;;;4962469;28;20182;-89
2023/01/13 08:38:37;;;;;;;3.30;1.93;;;5.50;99.90;;;;;;4960877;28;20175;-90
2023/01/13 08:41:20;;;;;;;2.10;1.90;;;5.50;99.90;;;;;;4946149;28;20186;-91
2023/01/13 08:43:59;;;;;;;4.37;2.00;;;;;;;;;;4976930;28;20182;-92
2023/01/13 08:46:35;;;;;;;2.73;2.43;;;5.60;99.90;;;;;;4961794;28;20186;-92
2023/01/13 08:49:02;;;;;;;3.53;2.70;;;;;;;;;;4961484;28;20179;-93
2023/01/13 08:51:49;;;;;;;2.17;1.77;;;5.60;99.90;;;;;;4961283;28;20692;-92
2023/01/13 08:54:18;;;;;;;2.63;2.10;;;5.60;99.90;;;;;;4960736;28;20269;-91
2023/01/13 08:56:47;;;;;;;2.27;1.77;;;;;;;;;;4960763;28;20191;-91
2023/01/13 08:59:19;;;;;;;9.30;3.43;;;5.70;99.90;;;;;;4960635;28;20194;-92
2023/01/13 09:01:45;;;;;;;3.20;1.97;;;;;;;;;;4962191;28;20222;-92
2023/01/13 09:04:27;;;;;;;;;;;;;;;;;;;;;
2023/01/13 09:07:04;;;;;;;;;;;;;;;;;;;;;
2023/01/13 09:09:35;;;;;;;3.10;2.50;;;5.80;99.90;;;;;;4997159;28;20217;-91
2023/01/13 09:14:53;;;;;;;2.23;2.03;;;;;;;;;;4968550;29;20174;-92
2023/01/13 09:17:22;;;;;;;4.00;2.43;;;5.90;99.90;;;;;;4950004;29;20234;-92
2023/01/13 09:19:50;;;;;;;2.93;2.30;;;;;;;;;;4932581;28;20187;-92
2023/01/13 09:22:26;;;;;;;2.30;2.10;;;6.00;99.90;;;;;;4964370;29;20239;-91
2023/01/13 09:25:34;;;;;;;3.30;1.93;;;6.00;99.90;;;;;;4948774;28;20195;-91
2023/01/13 09:28:03;;;;;;;3.53;3.00;;;;;;;;;;4964231;28;20247;-90
2023/01/13 09:30:29;;;;;;;3.10;2.53;;;;;;;;;;4964283;28;20183;-91
2023/01/13 09:35:46;;;;;;;3.57;2.47;;;;;;;;;;4964526;28;20231;-91
2023/01/13 09:38:29;;;;;;;3.70;1.83;;;6.10;99.90;;;;;;4978157;28;20651;-92
2023/01/13 09:44:15;;;;;;;5.77;2.40;;;6.20;99.90;;;;;;4997945;28;20182;-92
2023/01/13 09:47:05;;;;;;;2.97;1.80;;;6.20;99.90;;;;;;4995201;28;20258;-92
2023/01/13 09:49:58;;;;;;;8.00;2.60;;;6.30;99.90;;;;;;4994403;28;20191;-92
2023/01/13 09:52:27;;;;;;;5.10;2.93;;;;;;;;;;4973809;28;20206;-91
2023/01/13 09:55:13;;;;;;;2.13;1.90;;;6.40;99.90;;;;;;4971380;28;20202;-92
2023/01/13 09:57:42;;;;;;;5.77;2.77;;;6.40;99.90;;;;;;4969292;28;20209;-93
2023/01/13 10:03:31;;;;;;;3.60;1.97;;;6.60;99.90;;;;;;4993518;28;20205;-91
2023/01/13 10:09:33;;;;;;;4.67;2.87;;;6.70;99.90;;;;;;4918356;29;20192;-91
2023/01/13 10:14:55;;;;;;;4.27;2.60;;;6.70;99.90;;;;;;4919322;29;20742;-91
2023/01/13 10:21:19;;;;;;;4.40;2.50;;;6.70;99.90;;;;;;4917949;29;20176;-92
2023/01/13 10:24:01;;;;;;;2.37;2.10;;;6.70;99.90;;;;;;4907811;29;20197;-91
2023/01/13 10:26:41;;;;;;;6.33;3.07;;;6.80;99.90;;;;;;4895747;29;20244;-90
2023/01/13 10:29:23;;;;;;;3.27;1.93;;;6.80;99.90;;;;;;4892428;29;20195;-89
2023/01/13 10:31:56;;;;;;;5.30;3.77;;;6.80;99.90;;;;;;4897645;29;20222;-89
2023/01/13 10:34:24;;;;;;;7.13;3.20;;;6.80;99.90;;;;;;4899804;29;20216;-89
2023/01/13 10:37:08;;;;;;;5.27;3.53;;;6.80;99.90;;;;;;4900059;29;20184;-89
2023/01/13 10:39:45;;;;;;;5.27;2.40;;;6.80;99.90;;;;;;4933567;28;20190;-89
2023/01/13 10:42:17;;;;;;;4.60;2.30;;;6.80;99.90;;;;;;4974626;28;20214;-88
2023/01/13 10:44:54;;;;;;;2.73;2.53;;;6.80;99.90;;;;;;4974127;28;20237;-88
2023/01/13 10:47:31;;;;;;;2.83;2.20;;;6.90;99.90;;;;;;4973975;28;20182;-88
2023/01/13 10:50:16;;;;;;;5.63;2.60;;;6.90;99.90;;;;;;4975762;28;20181;-89
2023/01/13 10:52:59;;;;;;;7.03;2.63;;;6.90;99.90;;;;;;4975571;28;20238;-89
2023/01/13 10:55:25;;;;;;;5.53;2.80;;;;;;;;;;4974119;28;20294;-89
2023/01/13 10:57:51;;;;;;;8.77;3.60;;;;;;;;;;4974169;28;20183;-88
2023/01/13 11:00:32;;;;;;;8.50;3.53;;;7.00;99.90;;;;;;4973652;28;20245;-88
2023/01/13 11:03:22;;;;;;;5.27;3.50;;;7.10;99.90;;;;;;4973698;28;20213;-89
2023/01/13 11:05:59;;;;;;;6.37;2.93;;;7.20;99.90;;;;;;4975124;28;20166;-88
2023/01/13 11:08:43;;;;;;;7.93;2.90;;;7.20;99.90;;;;;;4973468;28;20542;-88
2023/01/13 11:11:30;;;;;;;3.07;2.60;;;7.30;99.90;;;;;;4974528;28;20632;-89
2023/01/13 11:16:52;;;;;;;6.53;3.10;;;7.40;99.90;;;;;;4974510;28;20300;-90
2023/01/13 11:19:20;;;;;;;2.70;2.00;;;7.40;99.90;;;;;;4955124;29;20203;-88
2023/01/13 11:21:59;;;;;;;3.57;1.97;;;7.40;99.90;;;;;;4959373;29;20183;-86
2023/01/13 11:24:41;;;;;;;5.73;3.20;;;7.40;99.90;;;;;;4971952;29;20226;-88
2023/01/13 11:27:18;;;;;;;5.63;3.37;;;7.40;99.90;;;;;;4960747;29;20315;-88
2023/01/13 11:30:08;;;;;;;2.97;2.00;;;7.40;99.90;;;;;;4951393;29;20179;-88
2023/01/13 11:32:56;;;;;;;4.27;2.93;;;7.50;99.90;;;;;;4957432;28;20210;-88
2023/01/13 11:35:23;;;;;;;6.17;2.40;;;7.40;99.90;;;;;;4956238;28;20238;-88
2023/01/13 11:38:00;;;;;;;4.17;2.53;;;7.40;99.90;;;;;;4959195;28;20237;-88
2023/01/13 11:40:54;;;;;;;4.10;2.27;;;7.50;99.90;;;;;;4955764;28;20174;-87
2023/01/13 11:43:41;;;;;;;8.47;2.80;;;7.50;99.90;;;;;;4951308;28;20187;-88
2023/01/13 11:46:09;;;;;;;5.10;2.23;;;7.40;99.90;;;;;;4973617;28;20526;-87
2023/01/13 11:48:40;;;;;;;4.67;3.00;;;7.40;99.90;;;;;;4958341;28;20179;-90
2023/01/13 11:51:31;;;;;;;10.07;2.87;;;7.60;99.90;;;;;;4959963;28;20560;-91
2023/01/13 11:54:14;;;;;;;6.77;3.10;;;7.40;99.90;;;;;;4953711;28;20214;-88
2023/01/13 11:57:00;;;;;;;4.57;2.90;;;7.40;99.90;;;;;;4941591;29;20640;-87
2023/01/13 11:59:50;;;;;;;4.87;2.87;;;7.40;99.90;;;;;;4958372;29;20180;-88
2023/01/13 12:02:47;;;;;;;5.43;1.80;;;7.40;99.90;;;;;;4946315;29;20669;-89
2023/01/13 12:05:39;;;;;;;13.70;3.87;;;7.30;99.90;;;;;;4958126;29;20258;-89
2023/01/13 12:08:11;;;;;;;6.17;2.50;;;7.30;99.90;;;;;;4958744;29;20164;-88
2023/01/13 12:11:28;;;;;;;4.17;2.00;;;7.20;99.90;;;;;;4942749;28;20187;-88
2023/01/13 12:13:54;;;;;;;4.70;2.57;;;;;;;;;;4925763;28;20230;-88
2023/01/13 12:16:25;;;;;;;3.80;2.43;;;7.20;99.90;;;;;;4959992;28;20307;-89
2023/01/13 12:18:53;;;;;;;2.63;2.13;;;;;;;;;;4960515;28;20206;-89
2023/01/13 12:21:23;;;;;;;8.60;2.60;;;7.10;99.90;;;;;;4978051;28;20217;-89
2023/01/13 12:24:21;;;;;;;3.53;2.80;;;7.10;99.90;;;;;;4960821;28;20548;-88
2023/01/13 12:27:29;;;;;;;3.30;3.00;;;7.10;99.90;;;;;;4960567;28;20237;-89
2023/01/13 12:29:58;;;;;;;4.33;3.03;;;7.00;99.90;;;;;;4960474;28;20178;-88
2023/01/13 12:32:34;;;;;;;4.33;2.20;;;7.00;99.90;;;;;;4944141;28;20245;-88
2023/01/13 12:35:24;;;;;;;5.77;3.20;;;7.10;99.90;;;;;;4960052;28;20174;-89
2023/01/13 12:38:01;;;;;;;7.17;3.47;;;7.00;99.90;;;;;;4960868;28;20187;-89
2023/01/13 12:40:27;;;;;;;13.47;3.17;;;;;;;;;;4977452;28;20687;-88
2023/01/13 12:46:32;;;;;;;8.60;3.23;;;7.00;99.90;;;;;;4980417;28;20253;-88
2023/01/13 12:49:01;;;;;;;6.83;4.17;;;7.00;99.90;;;;;;4962816;28;20191;-89
2023/01/13 12:51:57;;;;;;;7.27;3.87;;;7.00;99.90;;;;;;4962834;28;20197;-88
2023/01/13 12:54:43;;;;;;;3.97;3.13;;;7.00;99.90;;;;;;4961148;28;20241;-88
2023/01/13 12:57:25;;;;;;;6.17;2.83;;;7.00;99.90;;;;;;4978396;28;20181;-88
2023/01/13 13:00:03;;;;;;;4.03;3.57;;;7.00;99.90;;;;;;4960149;28;20216;-88
2023/01/13 13:02:31;;;;;;;4.60;2.93;;;7.00;99.90;;;;;;4976474;28;20266;-89
2023/01/13 13:05:20;;;;;;;3.77;3.20;;;7.00;99.90;;;;;;4960502;28;20190;-88
2023/01/13 13:07:59;;;;;;;7.50;2.93;;;7.00;99.90;;;;;;4946157;28;20258;-88
2023/01/13 13:10:32;;;;;;;12.93;2.80;;;7.00;99.90;;;;;;4977140;28;20174;-88
2023/01/13 13:13:18;;;;;;;6.00;3.03;;;6.90;99.90;;;;;;4950284;29;20305;-88
2023/01/13 13:15:46;;;;;;;3.90;2.67;;;6.90;99.90;;;;;;4957429;29;20770;-90
2023/01/13 13:18:20;;;;;;;6.20;2.87;;;6.90;99.90;;;;;;4959982;29;20167;-88
2023/01/13 13:21:05;;;;;;;7.53;4.10;;;6.90;99.90;;;;;;4963031;29;20183;-87
2023/01/13 13:23:52;;;;;;;2.63;2.40;;;6.80;99.90;;;;;;4959395;29;20191;-87
2023/01/13 13:26:18;;;;;;;8.23;3.27;;;;;;;;;;4971381;28;20196;-87
2023/01/13 13:29:29;;;;;;;5.80;3.50;;;6.90;99.90;;;;;;4974215;28;20210;-89
2023/01/13 13:32:15;;;;;;;5.00;2.90;;;6.90;99.90;;;;;;4993211;28;20189;-86
2023/01/13 13:35:08;;;;;;;6.27;3.63;;;7.50;99.90;;;;;;4976488;28;20226;-88
2023/01/13 13:46:48;;;;;;;4.27;2.83;;;6.80;99.90;;;;;;4985219;28;20178;-88
2023/01/13 13:49:32;;;;;;;7.73;3.23;;;6.80;99.90;;;;;;4966735;28;20636;-89
2023/01/13 13:52:14;;;;;;;5.63;3.47;;;6.80;99.90;;;;;;4965482;28;20234;-88
2023/01/13 13:54:46;;;;;;;6.97;3.87;;;6.80;99.90;;;;;;4967000;28;20230;-88
2023/01/13 13:57:35;;;;;;;2.30;2.17;;;6.80;99.90;;;;;;4963611;28;20269;-89
2023/01/13 14:00:17;;;;;;;5.60;3.37;;;6.70;99.90;;;;;;4964198;28;20197;-90
2023/01/13 14:02:57;;;;;;;5.03;2.77;;;6.70;99.90;;;;;;4980488;28;20167;-89
2023/01/13 14:05:34;;;;;;;5.67;3.07;;;6.60;99.90;;;;;;4965133;28;20178;-89
2023/01/13 14:08:10;;;;;;;7.93;4.23;;;6.60;99.90;;;;;;4983976;28;20208;-89
2023/01/13 14:10:38;;;;;;;7.03;3.80;;;6.60;99.90;;;;;;4946507;29;20186;-88
2023/01/13 14:13:26;;;;;;;6.63;3.20;;;6.60;99.90;;;;;;4963576;28;20230;-90
2023/01/13 14:15:56;;;;;;;6.07;2.83;;;6.50;99.90;;;;;;4960440;28;20377;-93
2023/01/13 14:18:23;;;;;;;5.90;3.63;;;;;;;;;;4957715;28;20187;-91
2023/01/13 14:21:04;;;;;;;5.13;3.40;;;6.50;99.90;;;;;;4964794;28;20191;-91
2023/01/13 14:23:32;;;;;;;6.53;4.20;;;6.50;99.90;;;;;;4975739;28;20226;-90
2023/01/13 14:26:08;;;;;;;5.57;2.80;;;6.50;99.90;;;;;;4958706;28;20182;-91
2023/01/13 14:28:42;;;;;;;8.60;2.83;;;6.40;99.90;;;;;;4959448;28;20234;-92
2023/01/13 14:31:09;;;;;;;3.93;2.70;;;;;;;;;;4959760;28;20193;-88
2023/01/13 14:33:57;;;;;;;4.47;2.60;;;6.40;99.90;;;;;;4954829;29;20226;-92
2023/01/13 14:36:59;;;;;;;8.27;3.33;;;8.20;99.90;;;;;;4941912;29;20246;-95
2023/01/13 14:39:50;;;;;;;10.23;3.57;;;6.40;99.90;;;;;;4952701;28;20221;-96
2023/01/13 14:42:26;;;;;;;7.00;3.40;;;6.30;99.90;;;;;;4959993;28;20179;-91
2023/01/13 14:44:55;;;;;;;6.10;4.17;;;6.20;99.90;;;;;;4945738;28;20249;-93
2023/01/13 14:47:22;;;;;;;3.70;2.60;;;;;;;;;;4959577;28;20647;-90
2023/01/13 14:50:18;;;;;;;7.47;3.80;;;6.20;99.90;;;;;;4957890;28;20238;-90
2023/01/13 14:53:00;;;;;;;4.23;3.07;;;6.10;99.90;;;;;;4957321;28;20278;-92
2023/01/13 14:55:37;;;;;;;4.73;3.23;;;6.10;99.90;;;;;;4943192;28;20186;-90
2023/01/13 14:58:28;;;;;;;5.87;2.83;;;6.10;99.90;;;;;;4953801;28;20182;-88
2023/01/13 15:01:28;;;;;;;3.27;2.77;;;6.00;99.90;;;;;;4954606;28;20524;-89
2023/01/13 15:03:55;;;;;;;7.63;3.40;;;;;;;;;;4962125;28;20191;-89
2023/01/13 15:06:37;;;;;;;4.17;2.93;;;6.00;99.90;;;;;;4962204;28;20206;-93
2023/01/13 15:09:24;;;;;;;11.50;3.53;;;5.90;99.90;;;;;;4962739;28;20190;-88
2023/01/13 15:11:53;;;;;;;7.17;3.60;;;5.90;99.90;;;;;;4973278;28;20209;-90
2023/01/13 15:14:46;;;;;;;3.93;3.00;;;5.90;99.90;;;;;;4945352;28;20293;-91
2023/01/13 15:17:16;;;;;;;4.03;3.47;;;5.90;99.90;;;;;;4941457;28;20289;-91
2023/01/13 15:19:51;;;;;;;6.70;4.03;;;5.90;99.90;;;;;;4958504;28;20200;-89
2023/01/13 15:22:18;;;;;;;6.63;2.60;;;;;;;;;;4962499;28;20174;-89
2023/01/13 15:24:44;;;;;;;7.50;3.10;;;;;;;;;;4961799;28;20183;-89
2023/01/13 15:27:17;;;;;;;8.37;3.37;;;5.80;99.90;;;;;;4978183;28;20548;-90
2023/01/13 15:29:46;;;;;;;3.83;2.67;;;5.80;99.90;;;;;;4978022;28;20258;-89
2023/01/13 15:32:18;;;;;;;4.87;2.73;;;5.80;99.90;;;;;;4979627;28;20178;-89